Startpagina
METAR-TAF:

METAR-TAF

Vliegvelden :

Harbin, China

breedte: 45-45N, lengte: 126-46E, hoogte: 143 m

Actueel weer

Dit bericht is 1 uur en het 5 minuten geleden gemaakt, om 17:00 UTC
Wind 17 kt uit het westzuidwesten met uitschieters tot 27 kt
Temperatuur 19°C
Vochtigheid 49%
Druk 1000 hPa
Zicht: 4000 m
Verspreide wolken op 2600 ft
zand

METAR: ZYHB 221700Z 24009G14MPS 4000 SA SCT026 19/08 Q1000 NOSIG

Tijdstip: 02:05 (18:05 UTC)

Verwachting

Dit bericht is 3 uur en het 3 minuten geleden gemaakt, om 15:02 UTC
Verwachting geldig van 22 om 18 UTC tot 23 om 18 UTC
Wind 12 kt uit het westzuidwesten met uitschieters tot 23 kt
Zicht: 6000 m
Gebroken wolken op 3000 ft
Tijdelijke
van 22 om 18 UTC tot 22 om 24 UTC
Zicht: 2500 m
Weinig wolken op 2300 ft, Cumulonimbus.
Gebroken wolken op 2600 ft
lichte regenbuien

TAF: ZYHB 221502Z 2218/2318 24006G12MPS 6000 BKN030 TX19/2306Z TN12/2221Z TEMPO 2218/2224 2500 -SHRA FEW023CB BKN026

Waarnemingen en weersverwachtingen van meer dan 4000 vliegvelden (METAR en TAF).

De beschikbare stations zijn de gele en rode punten op de kaart.

Ga met uw muis naar het station om de naam te zien.

Klik dan om waarnemingen en weersverwachtingen te zien.

kaart wijzigen: klik op de groene knoppen met een zwart kruis om in te zoomen, op de groene knop met een streepje om uit te zoomen of op de groene pijlen voor aangrenzende kaarten.


METAR-TAF: